Sweet Valley, Pennsylvania
Current Conditions -  °F | °C
As of 2:11 AM on Thursday 23 Oct 2014 (Local Time) from KAVP Reporting Station
Light Rain Light Rain  
Wind Chill: 43°   Ceiling: 1400
Heat Index: 48°   Visibility: 8mi
Dew Point: 43°   Wind: 10mph
Humidity: 83%   Direction: 20°NNE
Pressure: 29.89"   Gusts: NA
Location:  41.28°N, 76.14°W
Report Text: KAVP 230611Z AUTO 02009KT 8SM -RA BKN014 OVC020 09/06 A2989 RMK AO2 P0000 T00890061
Loading
Personal Weather Stations






























Interactive Weather Map
Tropical Storm Tracking
New forecast layout! Learn more

10-Day Weather Forecast

Advertisements
Track Severe Weather on mobile